sensor_id;sensor_type;location;lat;lon;timestamp;P1;durP1;ratioP1;P2;durP2;ratioP2
77991;SDS011;67180;43.534;-5.652;2023-04-03T00:01:01;14.27;;;1.52;;
77991;SDS011;67180;43.534;-5.652;2023-04-03T00:03:27;8.75;;;1.60;;
77991;SDS011;67180;43.534;-5.652;2023-04-03T00:05:54;7.43;;;1.42;;
77991;SDS011;67180;43.534;-5.652;2023-04-03T00:08:20;7.05;;;1.60;;
77991;SDS011;67180;43.534;-5.652;2023-04-03T00:10:46;5.65;;;1.30;;
77991;SDS011;67180;43.534;-5.652;2023-04-03T00:13:12;8.27;;;1.33;;
77991;SDS011;67180;43.534;-5.652;2023-04-03T00:15:39;9.10;;;1.33;;
77991;SDS011;67180;43.534;-5.652;2023-04-03T00:18:06;10.07;;;1.55;;
77991;SDS011;67180;43.534;-5.652;2023-04-03T00:20:33;15.32;;;1.60;;
77991;SDS011;67180;43.534;-5.652;2023-04-03T00:23:00;10.65;;;1.60;;
77991;SDS011;67180;43.534;-5.652;2023-04-03T00:25:26;11.50;;;1.38;;
77991;SDS011;67180;43.534;-5.652;2023-04-03T00:27:52;7.60;;;1.45;;
77991;SDS011;67180;43.534;-5.652;2023-04-03T00:30:19;12.73;;;1.40;;
77991;SDS011;67180;43.534;-5.652;2023-04-03T00:32:47;8.60;;;1.67;;
77991;SDS011;67180;43.534;-5.652;2023-04-03T00:35:13;8.23;;;1.30;;
77991;SDS011;67180;43.534;-5.652;2023-04-03T00:37:41;9.57;;;1.38;;
77991;SDS011;67180;43.534;-5.652;2023-04-03T00:40:08;10.13;;;1.73;;
77991;SDS011;67180;43.534;-5.652;2023-04-03T00:42:36;9.90;;;1.20;;
77991;SDS011;67180;43.534;-5.652;2023-04-03T00:47:49;7.40;;;1.10;;
77991;SDS011;67180;43.534;-5.652;2023-04-03T00:50:15;11.38;;;1.98;;
77991;SDS011;67180;43.534;-5.652;2023-04-03T00:52:41;7.63;;;1.20;;
77991;SDS011;67180;43.534;-5.652;2023-04-03T00:55:08;7.57;;;1.20;;
77991;SDS011;67180;43.534;-5.652;2023-04-03T00:57:35;6.57;;;1.15;;
77991;SDS011;67180;43.534;-5.652;2023-04-03T01:00:03;13.13;;;2.03;;
77991;SDS011;67180;43.534;-5.652;2023-04-03T01:02:31;10.05;;;1.90;;
77991;SDS011;67180;43.534;-5.652;2023-04-03T01:04:57;7.13;;;1.58;;
77991;SDS011;67180;43.534;-5.652;2023-04-03T01:07:24;8.95;;;1.42;;
77991;SDS011;67180;43.534;-5.652;2023-04-03T01:09:53;7.22;;;1.27;;
77991;SDS011;67180;43.534;-5.652;2023-04-03T01:12:23;8.10;;;1.30;;
77991;SDS011;67180;43.534;-5.652;2023-04-03T01:14:50;10.32;;;1.58;;
77991;SDS011;67180;43.534;-5.652;2023-04-03T01:17:24;7.97;;;1.40;;
77991;SDS011;67180;43.534;-5.652;2023-04-03T01:20:00;10.75;;;1.23;;
77991;SDS011;67180;43.534;-5.652;2023-04-03T01:22:34;10.70;;;2.22;;
77991;SDS011;67180;43.534;-5.652;2023-04-03T01:25:09;7.00;;;1.67;;
77991;SDS011;67180;43.534;-5.652;2023-04-03T01:27:35;9.57;;;1.08;;
77991;SDS011;67180;43.534;-5.652;2023-04-03T01:30:01;7.35;;;1.30;;
77991;SDS011;67180;43.534;-5.652;2023-04-03T01:32:28;7.32;;;1.40;;
77991;SDS011;67180;43.534;-5.652;2023-04-03T01:34:54;8.70;;;1.20;;
77991;SDS011;67180;43.534;-5.652;2023-04-03T01:37:20;8.98;;;1.40;;
77991;SDS011;67180;43.534;-5.652;2023-04-03T01:39:46;8.95;;;1.55;;
77991;SDS011;67180;43.534;-5.652;2023-04-03T01:42:12;9.20;;;1.40;;
77991;SDS011;67180;43.534;-5.652;2023-04-03T01:44:38;9.18;;;1.90;;
77991;SDS011;67180;43.534;-5.652;2023-04-03T01:47:05;9.65;;;1.40;;
77991;SDS011;67180;43.534;-5.652;2023-04-03T01:49:32;8.90;;;1.20;;
77991;SDS011;67180;43.534;-5.652;2023-04-03T01:51:58;6.50;;;1.27;;
77991;SDS011;67180;43.534;-5.652;2023-04-03T01:54:24;10.63;;;1.63;;
77991;SDS011;67180;43.534;-5.652;2023-04-03T01:56:50;5.95;;;1.48;;
77991;SDS011;67180;43.534;-5.652;2023-04-03T01:59:16;11.75;;;1.58;;
77991;SDS011;67180;43.534;-5.652;2023-04-03T02:01:44;5.70;;;1.17;;
77991;SDS011;67180;43.534;-5.652;2023-04-03T02:04:11;7.65;;;1.45;;
77991;SDS011;67180;43.534;-5.652;2023-04-03T02:06:37;9.93;;;1.60;;
77991;SDS011;67180;43.534;-5.652;2023-04-03T02:09:03;8.82;;;1.27;;
77991;SDS011;67180;43.534;-5.652;2023-04-03T02:11:30;6.18;;;1.27;;
77991;SDS011;67180;43.534;-5.652;2023-04-03T02:13:56;10.63;;;1.52;;
77991;SDS011;67180;43.534;-5.652;2023-04-03T02:16:22;6.20;;;1.45;;
77991;SDS011;67180;43.534;-5.652;2023-04-03T02:18:49;7.63;;;1.17;;
77991;SDS011;67180;43.534;-5.652;2023-04-03T02:21:15;9.63;;;1.30;;
77991;SDS011;67180;43.534;-5.652;2023-04-03T02:23:41;14.10;;;1.40;;
77991;SDS011;67180;43.534;-5.652;2023-04-03T02:26:09;6.78;;;1.30;;
77991;SDS011;67180;43.534;-5.652;2023-04-03T02:28:35;8.93;;;1.30;;
77991;SDS011;67180;43.534;-5.652;2023-04-03T02:31:02;5.95;;;1.30;;
77991;SDS011;67180;43.534;-5.652;2023-04-03T02:33:28;10.43;;;1.15;;
77991;SDS011;67180;43.534;-5.652;2023-04-03T02:35:55;15.48;;;1.90;;
77991;SDS011;67180;43.534;-5.652;2023-04-03T02:38:22;7.22;;;1.60;;
77991;SDS011;67180;43.534;-5.652;2023-04-03T02:40:48;11.20;;;1.55;;
77991;SDS011;67180;43.534;-5.652;2023-04-03T02:43:14;13.70;;;1.52;;
77991;SDS011;67180;43.534;-5.652;2023-04-03T02:45:41;9.65;;;1.33;;
77991;SDS011;67180;43.534;-5.652;2023-04-03T02:48:07;8.15;;;1.50;;
77991;SDS011;67180;43.534;-5.652;2023-04-03T02:50:33;8.07;;;1.30;;
77991;SDS011;67180;43.534;-5.652;2023-04-03T02:52:59;11.35;;;1.63;;
77991;SDS011;67180;43.534;-5.652;2023-04-03T02:55:25;8.68;;;1.50;;
77991;SDS011;67180;43.534;-5.652;2023-04-03T02:57:52;8.05;;;1.30;;
77991;SDS011;67180;43.534;-5.652;2023-04-03T03:00:18;6.65;;;1.10;;
77991;SDS011;67180;43.534;-5.652;2023-04-03T03:02:44;14.05;;;1.25;;
77991;SDS011;67180;43.534;-5.652;2023-04-03T03:05:11;7.38;;;1.83;;
77991;SDS011;67180;43.534;-5.652;2023-04-03T03:07:37;8.88;;;1.83;;
77991;SDS011;67180;43.534;-5.652;2023-04-03T03:10:03;4.03;;;1.20;;
77991;SDS011;67180;43.534;-5.652;2023-04-03T03:12:29;14.52;;;1.58;;
77991;SDS011;67180;43.534;-5.652;2023-04-03T03:14:55;9.75;;;1.30;;
77991;SDS011;67180;43.534;-5.652;2023-04-03T03:17:21;5.75;;;1.27;;
77991;SDS011;67180;43.534;-5.652;2023-04-03T03:19:48;9.52;;;1.55;;
77991;SDS011;67180;43.534;-5.652;2023-04-03T03:22:14;9.80;;;1.48;;
77991;SDS011;67180;43.534;-5.652;2023-04-03T03:24:40;10.55;;;1.70;;
77991;SDS011;67180;43.534;-5.652;2023-04-03T03:27:06;8.90;;;1.40;;
77991;SDS011;67180;43.534;-5.652;2023-04-03T03:29:32;8.10;;;1.67;;
77991;SDS011;67180;43.534;-5.652;2023-04-03T03:31:59;10.57;;;1.60;;
77991;SDS011;67180;43.534;-5.652;2023-04-03T03:34:25;9.75;;;1.60;;
77991;SDS011;67180;43.534;-5.652;2023-04-03T03:36:51;7.38;;;1.48;;
77991;SDS011;67180;43.534;-5.652;2023-04-03T03:39:17;8.15;;;1.52;;
77991;SDS011;67180;43.534;-5.652;2023-04-03T03:41:43;9.95;;;1.95;;
77991;SDS011;67180;43.534;-5.652;2023-04-03T03:44:10;8.18;;;1.40;;
77991;SDS011;67180;43.534;-5.652;2023-04-03T03:46:36;4.00;;;1.27;;
77991;SDS011;67180;43.534;-5.652;2023-04-03T03:49:02;8.73;;;1.38;;
77991;SDS011;67180;43.534;-5.652;2023-04-03T03:51:28;6.57;;;1.30;;
77991;SDS011;67180;43.534;-5.652;2023-04-03T03:53:54;10.27;;;1.65;;
77991;SDS011;67180;43.534;-5.652;2023-04-03T03:56:20;12.73;;;2.30;;
77991;SDS011;67180;43.534;-5.652;2023-04-03T03:58:47;12.18;;;1.35;;
77991;SDS011;67180;43.534;-5.652;2023-04-03T04:01:14;9.63;;;1.75;;
77991;SDS011;67180;43.534;-5.652;2023-04-03T04:03:42;11.80;;;1.95;;
77991;SDS011;67180;43.534;-5.652;2023-04-03T04:06:08;9.23;;;2.72;;
77991;SDS011;67180;43.534;-5.652;2023-04-03T04:08:34;10.20;;;2.47;;
77991;SDS011;67180;43.534;-5.652;2023-04-03T04:11:00;7.72;;;2.00;;
77991;SDS011;67180;43.534;-5.652;2023-04-03T04:13:26;6.90;;;2.10;;
77991;SDS011;67180;43.534;-5.652;2023-04-03T04:15:53;6.80;;;1.88;;
77991;SDS011;67180;43.534;-5.652;2023-04-03T04:18:19;12.90;;;1.63;;
77991;SDS011;67180;43.534;-5.652;2023-04-03T04:20:46;12.75;;;1.60;;
77991;SDS011;67180;43.534;-5.652;2023-04-03T04:23:12;15.20;;;1.77;;
77991;SDS011;67180;43.534;-5.652;2023-04-03T04:25:38;8.60;;;1.70;;
77991;SDS011;67180;43.534;-5.652;2023-04-03T04:28:05;12.60;;;1.45;;
77991;SDS011;67180;43.534;-5.652;2023-04-03T04:30:31;9.05;;;1.42;;
77991;SDS011;67180;43.534;-5.652;2023-04-03T04:32:57;9.43;;;1.65;;
77991;SDS011;67180;43.534;-5.652;2023-04-03T04:35:23;7.43;;;1.73;;
77991;SDS011;67180;43.534;-5.652;2023-04-03T04:37:49;10.63;;;1.65;;
77991;SDS011;67180;43.534;-5.652;2023-04-03T04:40:15;7.22;;;1.67;;
77991;SDS011;67180;43.534;-5.652;2023-04-03T04:42:42;5.03;;;1.30;;
77991;SDS011;67180;43.534;-5.652;2023-04-03T04:45:08;11.02;;;1.63;;
77991;SDS011;67180;43.534;-5.652;2023-04-03T04:47:35;6.25;;;1.42;;
77991;SDS011;67180;43.534;-5.652;2023-04-03T04:50:01;8.38;;;1.65;;
77991;SDS011;67180;43.534;-5.652;2023-04-03T04:52:27;8.82;;;1.77;;
77991;SDS011;67180;43.534;-5.652;2023-04-03T04:54:53;12.07;;;1.73;;
77991;SDS011;67180;43.534;-5.652;2023-04-03T04:57:19;15.27;;;2.55;;
77991;SDS011;67180;43.534;-5.652;2023-04-03T04:59:46;10.40;;;2.03;;
77991;SDS011;67180;43.534;-5.652;2023-04-03T05:02:12;8.45;;;2.03;;
77991;SDS011;67180;43.534;-5.652;2023-04-03T05:04:38;7.40;;;1.95;;
77991;SDS011;67180;43.534;-5.652;2023-04-03T05:07:04;10.60;;;2.53;;
77991;SDS011;67180;43.534;-5.652;2023-04-03T05:09:30;10.07;;;1.75;;
77991;SDS011;67180;43.534;-5.652;2023-04-03T05:11:56;7.22;;;1.92;;
77991;SDS011;67180;43.534;-5.652;2023-04-03T05:14:23;7.22;;;2.42;;
77991;SDS011;67180;43.534;-5.652;2023-04-03T05:16:49;9.65;;;1.90;;
77991;SDS011;67180;43.534;-5.652;2023-04-03T05:19:19;11.77;;;1.95;;
77991;SDS011;67180;43.534;-5.652;2023-04-03T05:21:45;10.32;;;2.38;;
77991;SDS011;67180;43.534;-5.652;2023-04-03T05:24:12;12.23;;;2.00;;
77991;SDS011;67180;43.534;-5.652;2023-04-03T05:26:38;9.48;;;2.50;;
77991;SDS011;67180;43.534;-5.652;2023-04-03T05:29:04;12.50;;;2.40;;
77991;SDS011;67180;43.534;-5.652;2023-04-03T05:31:30;8.48;;;1.77;;
77991;SDS011;67180;43.534;-5.652;2023-04-03T05:33:57;11.45;;;2.00;;
77991;SDS011;67180;43.534;-5.652;2023-04-03T05:36:23;9.50;;;2.00;;
77991;SDS011;67180;43.534;-5.652;2023-04-03T05:38:50;10.82;;;2.45;;
77991;SDS011;67180;43.534;-5.652;2023-04-03T05:41:17;14.35;;;2.20;;
77991;SDS011;67180;43.534;-5.652;2023-04-03T05:43:43;8.10;;;2.25;;
77991;SDS011;67180;43.534;-5.652;2023-04-03T05:46:10;9.48;;;2.17;;
77991;SDS011;67180;43.534;-5.652;2023-04-03T05:48:37;10.05;;;2.00;;
77991;SDS011;67180;43.534;-5.652;2023-04-03T05:51:04;12.48;;;2.25;;
77991;SDS011;67180;43.534;-5.652;2023-04-03T05:53:31;13.65;;;2.88;;
77991;SDS011;67180;43.534;-5.652;2023-04-03T05:55:57;10.45;;;2.00;;
77991;SDS011;67180;43.534;-5.652;2023-04-03T05:58:24;15.15;;;2.67;;
77991;SDS011;67180;43.534;-5.652;2023-04-03T06:00:52;8.60;;;2.05;;
77991;SDS011;67180;43.534;-5.652;2023-04-03T06:03:19;8.13;;;1.88;;
77991;SDS011;67180;43.534;-5.652;2023-04-03T06:05:45;10.88;;;1.80;;
77991;SDS011;67180;43.534;-5.652;2023-04-03T06:08:12;9.77;;;1.88;;
77991;SDS011;67180;43.534;-5.652;2023-04-03T06:10:39;9.23;;;2.15;;
77991;SDS011;67180;43.534;-5.652;2023-04-03T06:13:06;8.63;;;2.03;;
77991;SDS011;67180;43.534;-5.652;2023-04-03T06:15:33;7.55;;;2.08;;
77991;SDS011;67180;43.534;-5.652;2023-04-03T06:17:59;13.77;;;2.22;;
77991;SDS011;67180;43.534;-5.652;2023-04-03T06:20:26;10.93;;;1.98;;
77991;SDS011;67180;43.534;-5.652;2023-04-03T06:22:52;7.80;;;1.58;;
77991;SDS011;67180;43.534;-5.652;2023-04-03T06:25:18;15.05;;;2.35;;
77991;SDS011;67180;43.534;-5.652;2023-04-03T06:27:45;19.67;;;2.25;;
77991;SDS011;67180;43.534;-5.652;2023-04-03T06:30:11;10.55;;;2.35;;
77991;SDS011;67180;43.534;-5.652;2023-04-03T06:32:37;11.20;;;2.35;;
77991;SDS011;67180;43.534;-5.652;2023-04-03T06:35:04;7.40;;;1.95;;
77991;SDS011;67180;43.534;-5.652;2023-04-03T06:37:30;8.75;;;1.92;;
77991;SDS011;67180;43.534;-5.652;2023-04-03T06:39:57;11.18;;;2.30;;
77991;SDS011;67180;43.534;-5.652;2023-04-03T06:42:25;12.55;;;2.67;;
77991;SDS011;67180;43.534;-5.652;2023-04-03T06:44:51;9.45;;;2.20;;
77991;SDS011;67180;43.534;-5.652;2023-04-03T06:47:17;10.00;;;2.30;;
77991;SDS011;67180;43.534;-5.652;2023-04-03T06:49:44;9.63;;;2.65;;
77991;SDS011;67180;43.534;-5.652;2023-04-03T06:52:10;13.35;;;2.30;;
77991;SDS011;67180;43.534;-5.652;2023-04-03T06:54:38;9.10;;;2.53;;
77991;SDS011;67180;43.534;-5.652;2023-04-03T06:57:05;5.20;;;1.90;;
77991;SDS011;67180;43.534;-5.652;2023-04-03T06:59:31;6.85;;;2.63;;
77991;SDS011;67180;43.534;-5.652;2023-04-03T07:01:59;12.30;;;2.15;;
77991;SDS011;67180;43.534;-5.652;2023-04-03T07:04:25;7.50;;;1.73;;
77991;SDS011;67180;43.534;-5.652;2023-04-03T07:06:51;9.07;;;2.10;;
77991;SDS011;67180;43.534;-5.652;2023-04-03T07:09:18;14.75;;;2.50;;
77991;SDS011;67180;43.534;-5.652;2023-04-03T07:11:44;11.48;;;2.25;;
77991;SDS011;67180;43.534;-5.652;2023-04-03T07:14:19;8.82;;;1.90;;
77991;SDS011;67180;43.534;-5.652;2023-04-03T07:16:46;8.10;;;1.92;;
77991;SDS011;67180;43.534;-5.652;2023-04-03T07:19:12;9.63;;;1.80;;
77991;SDS011;67180;43.534;-5.652;2023-04-03T07:21:38;10.52;;;1.92;;
77991;SDS011;67180;43.534;-5.652;2023-04-03T07:24:05;7.68;;;2.10;;
77991;SDS011;67180;43.534;-5.652;2023-04-03T07:26:31;10.07;;;2.33;;
77991;SDS011;67180;43.534;-5.652;2023-04-03T07:28:57;13.23;;;2.28;;
77991;SDS011;67180;43.534;-5.652;2023-04-03T07:31:24;8.20;;;2.22;;
77991;SDS011;67180;43.534;-5.652;2023-04-03T07:33:51;7.50;;;1.75;;
77991;SDS011;67180;43.534;-5.652;2023-04-03T07:36:19;8.55;;;1.90;;
77991;SDS011;67180;43.534;-5.652;2023-04-03T07:38:45;8.07;;;1.75;;
77991;SDS011;67180;43.534;-5.652;2023-04-03T07:41:13;8.18;;;1.98;;
77991;SDS011;67180;43.534;-5.652;2023-04-03T07:43:40;9.23;;;1.92;;
77991;SDS011;67180;43.534;-5.652;2023-04-03T07:46:07;5.32;;;1.63;;
77991;SDS011;67180;43.534;-5.652;2023-04-03T07:48:34;10.55;;;1.83;;
77991;SDS011;67180;43.534;-5.652;2023-04-03T07:51:00;12.82;;;2.20;;
77991;SDS011;67180;43.534;-5.652;2023-04-03T07:53:27;8.23;;;1.65;;
77991;SDS011;67180;43.534;-5.652;2023-04-03T07:55:53;9.65;;;1.85;;
77991;SDS011;67180;43.534;-5.652;2023-04-03T07:58:21;7.68;;;1.45;;
77991;SDS011;67180;43.534;-5.652;2023-04-03T08:00:48;6.95;;;1.33;;
77991;SDS011;67180;43.534;-5.652;2023-04-03T08:03:14;10.85;;;1.30;;
77991;SDS011;67180;43.534;-5.652;2023-04-03T08:05:44;88.00;;;8.30;;
77991;SDS011;67180;43.534;-5.652;2023-04-03T08:08:11;79.07;;;7.95;;
77991;SDS011;67180;43.534;-5.652;2023-04-03T08:10:38;76.50;;;6.53;;
77991;SDS011;67180;43.534;-5.652;2023-04-03T08:13:04;224.35;;;19.35;;
77991;SDS011;67180;43.534;-5.652;2023-04-03T08:15:31;63.50;;;5.30;;
77991;SDS011;67180;43.534;-5.652;2023-04-03T08:17:58;53.53;;;5.53;;
77991;SDS011;67180;43.534;-5.652;2023-04-03T08:20:25;54.92;;;4.82;;
77991;SDS011;67180;43.534;-5.652;2023-04-03T08:22:52;168.50;;;13.93;;
77991;SDS011;67180;43.534;-5.652;2023-04-03T08:25:18;85.18;;;6.13;;
77991;SDS011;67180;43.534;-5.652;2023-04-03T08:27:45;13.95;;;1.75;;
77991;SDS011;67180;43.534;-5.652;2023-04-03T08:30:11;5.35;;;1.10;;
77991;SDS011;67180;43.534;-5.652;2023-04-03T08:32:38;66.28;;;5.32;;
77991;SDS011;67180;43.534;-5.652;2023-04-03T08:35:07;110.38;;;9.98;;
77991;SDS011;67180;43.534;-5.652;2023-04-03T08:37:35;88.38;;;8.02;;
77991;SDS011;67180;43.534;-5.652;2023-04-03T08:40:02;13.50;;;1.58;;
77991;SDS011;67180;43.534;-5.652;2023-04-03T08:42:49;10.82;;;1.50;;
77991;SDS011;67180;43.534;-5.652;2023-04-03T08:45:16;6.70;;;1.40;;
77991;SDS011;67180;43.534;-5.652;2023-04-03T08:50:13;6.45;;;1.20;;
77991;SDS011;67180;43.534;-5.652;2023-04-03T08:52:42;9.75;;;1.50;;
77991;SDS011;67180;43.534;-5.652;2023-04-03T08:55:22;11.77;;;1.77;;
77991;SDS011;67180;43.534;-5.652;2023-04-03T08:57:50;10.02;;;1.35;;
77991;SDS011;67180;43.534;-5.652;2023-04-03T09:00:21;6.65;;;1.30;;
77991;SDS011;67180;43.534;-5.652;2023-04-03T09:02:49;6.10;;;1.42;;
77991;SDS011;67180;43.534;-5.652;2023-04-03T09:05:20;5.53;;;1.38;;
77991;SDS011;67180;43.534;-5.652;2023-04-03T09:07:49;7.40;;;1.45;;
77991;SDS011;67180;43.534;-5.652;2023-04-03T09:10:24;8.20;;;1.30;;
77991;SDS011;67180;43.534;-5.652;2023-04-03T09:12:58;10.95;;;1.70;;
77991;SDS011;67180;43.534;-5.652;2023-04-03T09:15:25;6.80;;;1.33;;
77991;SDS011;67180;43.534;-5.652;2023-04-03T09:17:56;4.93;;;1.27;;
77991;SDS011;67180;43.534;-5.652;2023-04-03T09:20:31;6.53;;;1.13;;
77991;SDS011;67180;43.534;-5.652;2023-04-03T09:23:01;5.03;;;1.38;;
77991;SDS011;67180;43.534;-5.652;2023-04-03T09:25:32;7.55;;;1.48;;
77991;SDS011;67180;43.534;-5.652;2023-04-03T09:28:00;7.45;;;1.40;;
77991;SDS011;67180;43.534;-5.652;2023-04-03T09:30:27;4.30;;;1.30;;
77991;SDS011;67180;43.534;-5.652;2023-04-03T09:32:54;9.82;;;1.23;;
77991;SDS011;67180;43.534;-5.652;2023-04-03T09:35:37;4.80;;;1.27;;
77991;SDS011;67180;43.534;-5.652;2023-04-03T09:38:17;2.78;;;1.17;;
77991;SDS011;67180;43.534;-5.652;2023-04-03T09:40:45;9.57;;;1.63;;
77991;SDS011;67180;43.534;-5.652;2023-04-03T09:43:21;4.38;;;1.20;;
77991;SDS011;67180;43.534;-5.652;2023-04-03T09:45:49;7.65;;;1.75;;
77991;SDS011;67180;43.534;-5.652;2023-04-03T09:48:17;4.60;;;1.10;;
77991;SDS011;67180;43.534;-5.652;2023-04-03T09:50:54;6.57;;;1.25;;
77991;SDS011;67180;43.534;-5.652;2023-04-03T09:53:31;3.63;;;1.00;;
77991;SDS011;67180;43.534;-5.652;2023-04-03T09:55:58;4.65;;;1.40;;
77991;SDS011;67180;43.534;-5.652;2023-04-03T09:58:30;8.05;;;1.50;;
77991;SDS011;67180;43.534;-5.652;2023-04-03T10:00:59;6.90;;;1.30;;
77991;SDS011;67180;43.534;-5.652;2023-04-03T10:03:28;5.57;;;1.42;;
77991;SDS011;67180;43.534;-5.652;2023-04-03T10:05:55;5.07;;;1.30;;
77991;SDS011;67180;43.534;-5.652;2023-04-03T10:08:24;11.10;;;1.50;;
77991;SDS011;67180;43.534;-5.652;2023-04-03T10:11:12;10.23;;;1.38;;
77991;SDS011;67180;43.534;-5.652;2023-04-03T10:13:49;4.50;;;1.75;;
77991;SDS011;67180;43.534;-5.652;2023-04-03T10:16:16;9.57;;;1.58;;
77991;SDS011;67180;43.534;-5.652;2023-04-03T10:18:45;7.50;;;1.60;;
77991;SDS011;67180;43.534;-5.652;2023-04-03T10:21:19;5.75;;;1.45;;
77991;SDS011;67180;43.534;-5.652;2023-04-03T10:23:51;5.78;;;1.58;;
77991;SDS011;67180;43.534;-5.652;2023-04-03T10:26:27;8.43;;;1.40;;
77991;SDS011;67180;43.534;-5.652;2023-04-03T10:31:37;6.65;;;1.30;;
77991;SDS011;67180;43.534;-5.652;2023-04-03T10:34:15;4.25;;;1.42;;
77991;SDS011;67180;43.534;-5.652;2023-04-03T10:36:48;4.05;;;1.45;;
77991;SDS011;67180;43.534;-5.652;2023-04-03T10:39:22;10.27;;;1.48;;
77991;SDS011;67180;43.534;-5.652;2023-04-03T10:41:56;6.55;;;1.80;;
77991;SDS011;67180;43.534;-5.652;2023-04-03T10:47:15;5.97;;;1.67;;
77991;SDS011;67180;43.534;-5.652;2023-04-03T10:49:48;8.60;;;1.95;;
77991;SDS011;67180;43.534;-5.652;2023-04-03T10:52:20;5.78;;;1.90;;
77991;SDS011;67180;43.534;-5.652;2023-04-03T10:54:52;5.35;;;1.50;;
77991;SDS011;67180;43.534;-5.652;2023-04-03T10:57:21;7.40;;;1.92;;
77991;SDS011;67180;43.534;-5.652;2023-04-03T10:59:49;7.00;;;2.00;;
77991;SDS011;67180;43.534;-5.652;2023-04-03T11:02:27;10.45;;;2.03;;
77991;SDS011;67180;43.534;-5.652;2023-04-03T11:05:04;7.22;;;1.60;;
77991;SDS011;67180;43.534;-5.652;2023-04-03T11:07:50;7.23;;;2.03;;
77991;SDS011;67180;43.534;-5.652;2023-04-03T11:10:21;5.38;;;1.50;;
77991;SDS011;67180;43.534;-5.652;2023-04-03T11:12:56;5.85;;;1.73;;
77991;SDS011;67180;43.534;-5.652;2023-04-03T11:15:24;10.13;;;1.85;;
77991;SDS011;67180;43.534;-5.652;2023-04-03T11:17:53;8.88;;;2.10;;
77991;SDS011;67180;43.534;-5.652;2023-04-03T11:20:23;8.65;;;2.10;;
77991;SDS011;67180;43.534;-5.652;2023-04-03T11:25:32;9.23;;;2.00;;
77991;SDS011;67180;43.534;-5.652;2023-04-03T11:28:03;6.65;;;1.73;;
77991;SDS011;67180;43.534;-5.652;2023-04-03T11:35:52;6.50;;;1.80;;
77991;SDS011;67180;43.534;-5.652;2023-04-03T11:38:25;5.88;;;1.70;;
77991;SDS011;67180;43.534;-5.652;2023-04-03T11:40:54;6.38;;;2.03;;
77991;SDS011;67180;43.534;-5.652;2023-04-03T11:43:24;8.30;;;2.03;;
77991;SDS011;67180;43.534;-5.652;2023-04-03T11:45:53;9.60;;;1.88;;
77991;SDS011;67180;43.534;-5.652;2023-04-03T11:53:52;8.63;;;1.88;;
77991;SDS011;67180;43.534;-5.652;2023-04-03T11:56:27;6.22;;;1.75;;
77991;SDS011;67180;43.534;-5.652;2023-04-03T11:59:16;8.48;;;2.13;;
77991;SDS011;67180;43.534;-5.652;2023-04-03T12:01:46;16.85;;;1.90;;
77991;SDS011;67180;43.534;-5.652;2023-04-03T12:04:13;9.45;;;2.08;;
77991;SDS011;67180;43.534;-5.652;2023-04-03T12:06:42;6.60;;;1.98;;
77991;SDS011;67180;43.534;-5.652;2023-04-03T12:09:23;6.10;;;1.88;;
77991;SDS011;67180;43.534;-5.652;2023-04-03T12:11:49;8.23;;;2.10;;
77991;SDS011;67180;43.534;-5.652;2023-04-03T12:14:16;6.80;;;1.90;;
77991;SDS011;67180;43.534;-5.652;2023-04-03T12:16:43;8.80;;;1.98;;
77991;SDS011;67180;43.534;-5.652;2023-04-03T12:22:07;10.75;;;2.10;;
77991;SDS011;67180;43.534;-5.652;2023-04-03T12:24:35;5.32;;;1.77;;
77991;SDS011;67180;43.534;-5.652;2023-04-03T12:27:03;8.10;;;1.77;;
77991;SDS011;67180;43.534;-5.652;2023-04-03T12:29:34;5.60;;;1.92;;
77991;SDS011;67180;43.534;-5.652;2023-04-03T12:35:03;5.22;;;1.95;;
77991;SDS011;67180;43.534;-5.652;2023-04-03T12:43:01;8.00;;;1.98;;
77991;SDS011;67180;43.534;-5.652;2023-04-03T12:45:30;13.65;;;1.85;;
77991;SDS011;67180;43.534;-5.652;2023-04-03T12:48:06;6.07;;;1.60;;
77991;SDS011;67180;43.534;-5.652;2023-04-03T12:50:36;4.95;;;1.77;;
77991;SDS011;67180;43.534;-5.652;2023-04-03T12:53:04;7.10;;;1.75;;
77991;SDS011;67180;43.534;-5.652;2023-04-03T12:55:31;8.40;;;1.75;;
77991;SDS011;67180;43.534;-5.652;2023-04-03T12:57:57;14.10;;;1.90;;
77991;SDS011;67180;43.534;-5.652;2023-04-03T13:00:38;7.13;;;1.77;;
77991;SDS011;67180;43.534;-5.652;2023-04-03T13:03:05;5.38;;;1.67;;
77991;SDS011;67180;43.534;-5.652;2023-04-03T13:05:32;6.05;;;1.90;;
77991;SDS011;67180;43.534;-5.652;2023-04-03T13:07:59;11.25;;;2.00;;
77991;SDS011;67180;43.534;-5.652;2023-04-03T13:10:28;7.15;;;1.73;;
77991;SDS011;67180;43.534;-5.652;2023-04-03T13:12:55;8.63;;;1.85;;
77991;SDS011;67180;43.534;-5.652;2023-04-03T13:15:26;6.53;;;2.00;;
77991;SDS011;67180;43.534;-5.652;2023-04-03T13:17:54;4.68;;;1.60;;
77991;SDS011;67180;43.534;-5.652;2023-04-03T13:20:26;8.68;;;1.70;;
77991;SDS011;67180;43.534;-5.652;2023-04-03T13:22:54;6.78;;;2.05;;
77991;SDS011;67180;43.534;-5.652;2023-04-03T13:25:23;5.93;;;1.90;;
77991;SDS011;67180;43.534;-5.652;2023-04-03T13:27:50;4.75;;;2.00;;
77991;SDS011;67180;43.534;-5.652;2023-04-03T13:30:20;3.58;;;1.60;;
77991;SDS011;67180;43.534;-5.652;2023-04-03T13:32:47;5.65;;;1.98;;
77991;SDS011;67180;43.534;-5.652;2023-04-03T13:37:56;4.82;;;1.73;;
77991;SDS011;67180;43.534;-5.652;2023-04-03T13:40:23;6.00;;;1.80;;
77991;SDS011;67180;43.534;-5.652;2023-04-03T13:43:02;13.07;;;2.15;;
77991;SDS011;67180;43.534;-5.652;2023-04-03T13:45:29;7.38;;;1.80;;
77991;SDS011;67180;43.534;-5.652;2023-04-03T13:48:30;8.65;;;2.03;;
77991;SDS011;67180;43.534;-5.652;2023-04-03T13:53:21;6.07;;;2.25;;
77991;SDS011;67180;43.534;-5.652;2023-04-03T13:55:55;10.23;;;1.92;;
77991;SDS011;67180;43.534;-5.652;2023-04-03T13:58:23;5.38;;;1.77;;
77991;SDS011;67180;43.534;-5.652;2023-04-03T14:00:53;7.05;;;2.03;;
77991;SDS011;67180;43.534;-5.652;2023-04-03T14:03:25;9.45;;;1.90;;
77991;SDS011;67180;43.534;-5.652;2023-04-03T14:05:52;5.22;;;1.65;;
77991;SDS011;67180;43.534;-5.652;2023-04-03T14:08:19;7.80;;;2.53;;
77991;SDS011;67180;43.534;-5.652;2023-04-03T14:10:45;6.13;;;1.90;;
77991;SDS011;67180;43.534;-5.652;2023-04-03T14:13:13;6.05;;;1.90;;
77991;SDS011;67180;43.534;-5.652;2023-04-03T14:15:40;8.13;;;2.00;;
77991;SDS011;67180;43.534;-5.652;2023-04-03T14:18:10;8.80;;;1.80;;
77991;SDS011;67180;43.534;-5.652;2023-04-03T14:20:36;5.87;;;1.67;;
77991;SDS011;67180;43.534;-5.652;2023-04-03T14:23:02;5.65;;;2.03;;
77991;SDS011;67180;43.534;-5.652;2023-04-03T14:25:28;5.13;;;1.90;;
77991;SDS011;67180;43.534;-5.652;2023-04-03T14:27:55;7.10;;;2.15;;
77991;SDS011;67180;43.534;-5.652;2023-04-03T14:30:25;10.32;;;2.00;;
77991;SDS011;67180;43.534;-5.652;2023-04-03T14:32:51;6.15;;;2.08;;
77991;SDS011;67180;43.534;-5.652;2023-04-03T14:35:18;5.47;;;1.85;;
77991;SDS011;67180;43.534;-5.652;2023-04-03T14:37:44;10.45;;;2.20;;
77991;SDS011;67180;43.534;-5.652;2023-04-03T14:40:15;6.32;;;1.80;;
77991;SDS011;67180;43.534;-5.652;2023-04-03T14:42:41;5.78;;;2.00;;
77991;SDS011;67180;43.534;-5.652;2023-04-03T14:45:09;8.85;;;1.90;;
77991;SDS011;67180;43.534;-5.652;2023-04-03T14:47:37;11.82;;;1.73;;
77991;SDS011;67180;43.534;-5.652;2023-04-03T14:52:33;5.45;;;1.50;;
77991;SDS011;67180;43.534;-5.652;2023-04-03T14:55:00;9.02;;;1.90;;
77991;SDS011;67180;43.534;-5.652;2023-04-03T14:57:28;6.60;;;1.75;;
77991;SDS011;67180;43.534;-5.652;2023-04-03T14:59:55;5.30;;;1.52;;
77991;SDS011;67180;43.534;-5.652;2023-04-03T15:02:25;5.40;;;1.48;;
77991;SDS011;67180;43.534;-5.652;2023-04-03T15:04:51;11.55;;;1.77;;
77991;SDS011;67180;43.534;-5.652;2023-04-03T15:07:18;5.68;;;1.48;;
77991;SDS011;67180;43.534;-5.652;2023-04-03T15:09:44;5.97;;;1.45;;
77991;SDS011;67180;43.534;-5.652;2023-04-03T15:12:10;7.75;;;1.80;;
77991;SDS011;67180;43.534;-5.652;2023-04-03T15:14:36;5.30;;;1.55;;
77991;SDS011;67180;43.534;-5.652;2023-04-03T15:17:04;4.97;;;1.60;;
77991;SDS011;67180;43.534;-5.652;2023-04-03T15:19:32;6.32;;;1.60;;